Weston, Louisiana
Current Conditions -  °F | °C
As of 9:35 PM on Saturday 24 Jan 2015 (Local Time) from KRSN Reporting Station
Clear Clear  
Wind Chill: 41°   Ceiling: Unl
Heat Index: 43°   Visibility: 10mi
Dew Point: 38°   Wind: 5mph
Humidity: 82%   Direction: 210°SSW
Pressure: 30.05"   Gusts: NA
Location:  32.2275°N, 92.6417°W
Report Text: KRSN 250335Z AUTO 21004KT 10SM CLR 06/04 A3005 RMK AO2 T00630035
Loading
Personal Weather Stations






























Interactive Weather Map New forecast layout! Learn more

10-Day Weather Forecast

Advertisements
Track Severe Weather on mobile